Time;durP1;ratioP1;P1;durP2;ratioP2;P2;SDS_P1;SDS_P2;PMS_P1;PMS_P2;Temp;Humidity;BMP_temperature;BMP_pressure;BME280_temperature;BME280_humidity;BME280_pressure;Samples;Min_cycle;Max_cycle;Signal;HPM_P1;HPM_P2
2023/03/05 00:01:38;;;;;;;4.53;2.00;;;;;;;4.04;41.90;92152.06;6186391;23;20025;-77
2023/03/05 00:04:09;;;;;;;6.10;2.10;;;;;;;4.11;40.49;92153.38;6187260;23;20013;-77
2023/03/05 00:06:34;;;;;;;5.57;2.35;;;;;;;4.23;39.09;92153.16;6187005;23;20095;-77
2023/03/05 00:09:02;;;;;;;5.10;2.60;;;;;;;4.42;38.83;92152.72;6162743;23;20091;-77
2023/03/05 00:11:28;;;;;;;5.15;2.60;;;;;;;4.62;38.52;92147.56;6186551;23;20021;-77
2023/03/05 00:13:55;;;;;;;4.82;2.40;;;;;;;4.65;39.97;92161.81;6214135;23;20146;-77
2023/03/05 00:16:25;;;;;;;5.22;2.40;;;;;;;4.54;40.06;92158.41;6187143;23;20012;-77
2023/03/05 00:18:52;;;;;;;5.80;2.30;;;;;;;4.51;40.16;92156.34;6187979;23;20016;-77
2023/03/05 00:21:42;;;;;;;4.45;2.42;;;;;;;4.46;40.57;92156.31;6213094;23;20012;-77
2023/03/05 00:24:12;;;;;;;4.63;2.22;;;;;;;4.38;40.46;92152.44;6213186;23;20017;-77
2023/03/05 00:26:38;;;;;;;7.05;2.65;;;;;;;4.31;42.70;92157.84;6213843;23;20012;-77
2023/03/05 00:29:05;;;;;;;5.03;2.78;;;;;;;4.19;44.10;92154.72;6187392;23;20371;-76
2023/03/05 00:31:33;;;;;;;6.18;3.00;;;;;;;4.06;45.37;92153.38;6213852;23;20031;-77
2023/03/05 00:34:02;;;;;;;5.65;3.10;;;;;;;3.94;47.15;92152.78;6186803;23;20356;-77
2023/03/05 00:36:28;;;;;;;7.97;3.50;;;;;;;3.89;48.83;92156.16;6161612;23;20525;-77
2023/03/05 00:38:54;;;;;;;6.82;3.47;;;;;;;3.82;49.43;92144.47;6186987;23;20099;-77
2023/03/05 00:41:21;;;;;;;6.65;3.20;;;;;;;3.72;51.01;92151.16;6212951;23;20040;-77
2023/03/05 00:43:47;;;;;;;7.85;3.80;;;;;;;3.64;52.07;92146.44;6212875;23;20032;-77
2023/03/05 00:46:12;;;;;;;9.57;3.83;;;;;;;3.60;52.35;92150.56;6213301;23;20011;-77
2023/03/05 00:48:41;;;;;;;7.15;3.10;;;;;;;3.57;50.87;92147.72;6216957;23;20017;-77
2023/03/05 00:51:08;;;;;;;5.60;2.70;;;;;;;3.58;48.19;92144.88;6195420;23;20448;-77
2023/03/05 00:53:34;;;;;;;6.07;2.65;;;;;;;3.66;47.00;92135.84;6213817;23;20059;-77
2023/03/05 00:55:59;;;;;;;6.28;3.05;;;;;;;3.64;47.61;92143.09;6186226;23;20020;-77
2023/03/05 00:58:25;;;;;;;5.35;3.08;;;;;;;3.64;48.49;92143.09;6186892;23;20009;-77
2023/03/05 01:00:50;;;;;;;6.45;3.17;;;;;;;3.58;48.77;92138.91;6213091;23;20738;-77
2023/03/05 01:03:19;;;;;;;5.00;2.50;;;;;;;3.55;48.01;92135.78;6202635;23;20021;-77
2023/03/05 01:05:45;;;;;;;4.70;2.50;;;;;;;3.52;47.43;92133.72;6213356;23;20096;-77
2023/03/05 01:08:10;;;;;;;4.90;2.35;;;;;;;3.53;46.65;92137.88;6213349;23;20028;-76
2023/03/05 01:10:36;;;;;;;5.75;2.30;;;;;;;3.52;46.11;92135.53;6210672;23;20452;-77
2023/03/05 01:13:02;;;;;;;4.90;2.20;;;;;;;3.46;45.52;92121.78;6211934;23;20023;-76
2023/03/05 01:15:27;;;;;;;5.57;2.60;;;;;;;3.50;43.97;92128.00;6211864;23;20000;-76
2023/03/05 01:17:53;;;;;;;4.22;1.90;;;;;;;3.53;42.66;92126.72;6213121;23;20075;-77
2023/03/05 01:20:20;;;;;;;4.63;2.00;;;;;;;3.60;42.61;92126.50;6213312;23;20024;-77
2023/03/05 01:22:46;;;;;;;6.60;2.13;;;;;;;3.59;41.99;92125.72;6211135;23;20020;-76
2023/03/05 01:25:13;;;;;;;6.18;2.70;;;;;;;3.59;44.07;92130.91;6212938;23;20004;-77
2023/03/05 01:27:39;;;;;;;6.20;2.80;;;;;;;3.54;46.59;92118.72;6213483;23;20048;-77
2023/03/05 01:30:06;;;;;;;4.80;2.53;;;;;;;3.52;47.58;92125.94;6211572;23;20322;-76
2023/03/05 01:32:33;;;;;;;4.65;2.50;;;;;;;3.51;47.29;92123.59;6213098;23;20059;-76
2023/03/05 01:35:00;;;;;;;7.35;3.10;;;;;;;3.50;49.75;92112.47;6212967;23;20013;-75
2023/03/05 01:37:27;;;;;;;9.27;3.30;;;;;;;3.43;51.41;92106.75;6212041;23;20016;-78
2023/03/05 01:39:52;;;;;;;8.80;3.22;;;;;;;3.35;51.59;92109.81;6213556;23;20008;-77
2023/03/05 01:42:19;;;;;;;4.78;2.40;;;;;;;3.30;48.96;92107.19;6211686;23;20479;-75
2023/03/05 01:45:04;;;;;;;6.20;2.40;;;;;;;3.37;45.63;92097.41;6212435;23;20096;-78
2023/03/05 01:47:30;;;;;;;6.00;2.92;;;;;;;3.48;47.20;92103.41;6212469;23;20063;-77
2023/03/05 01:49:56;;;;;;;6.05;2.90;;;;;;;3.49;48.15;92100.59;6211514;23;20004;-78
2023/03/05 01:52:23;;;;;;;6.60;3.20;;;;;;;3.51;49.74;92102.91;6186244;23;20452;-78
2023/03/05 01:55:00;;;;;;;5.78;2.60;;;;;;;3.47;48.33;92097.47;6214019;23;20016;-78
2023/03/05 01:57:44;;;;;;;5.88;2.88;;;;;;;3.44;48.49;92103.13;6216531;23;20012;-78
2023/03/05 02:00:17;;;;;;;6.20;2.65;;;;;;;3.37;48.13;92097.41;6213496;23;20009;-78
2023/03/05 02:02:47;;;;;;;7.85;3.47;;;;;;;3.31;49.37;92099.19;6214784;23;20020;-77
2023/03/05 02:05:18;;;;;;;10.00;3.20;;;;;;;3.27;50.13;92089.59;6214923;23;20012;-77
2023/03/05 02:07:44;;;;;;;8.75;3.35;;;;;;;3.24;52.30;92087.50;6187599;23;20505;-77
2023/03/05 02:10:32;;;;;;;7.88;3.40;;;;;;;3.18;52.52;92084.13;6214632;23;20004;-78
2023/03/05 02:13:02;;;;;;;6.72;3.47;;;;;;;3.17;53.69;92086.94;6212819;23;20017;-77
2023/03/05 02:15:29;;;;;;;9.90;4.35;;;;;;;3.11;54.40;92079.16;6188247;23;20016;-77
2023/03/05 02:17:55;;;;;;;11.75;4.80;;;;;;;3.07;56.47;92082.50;6188514;23;20001;-77
2023/03/05 02:20:27;;;;;;;9.30;4.28;;;;;;;3.01;57.41;92086.06;6215282;23;20127;-77
2023/03/05 02:22:52;;;;;;;;;;;;;;;2.92;58.16;92090.94;6216176;23;20206;-76
2023/03/05 02:25:27;;;;;;;8.02;3.78;;;;;;;2.86;58.98;92081.56;6164563;23;20251;-77
2023/03/05 02:28:10;;;;;;;8.77;4.13;;;;;;;2.79;58.89;92084.41;6212894;23;20012;-77
2023/03/05 02:30:36;;;;;;;6.55;3.88;;;;;;;2.75;58.94;92080.75;6188232;23;20352;-77
2023/03/05 02:33:02;;;;;;;8.05;4.00;;;;;;;2.69;57.87;92081.72;6214542;23;20368;-77
2023/03/05 02:35:27;;;;;;;5.95;3.05;;;;;;;2.65;56.79;92081.44;6214895;23;20067;-77
2023/03/05 02:37:53;;;;;;;9.25;3.80;;;;;;;2.64;55.91;92077.31;6213543;23;20048;-76
2023/03/05 02:40:19;;;;;;;5.22;2.60;;;;;;;2.63;54.46;92077.53;6163163;23;20005;-77
2023/03/05 02:42:45;;;;;;;8.07;2.90;;;;;;;2.57;53.56;92081.09;6214446;23;20091;-77
2023/03/05 02:45:12;;;;;;;8.23;2.70;;;;;;;2.54;53.98;92079.03;6187687;23;20075;-77
2023/03/05 02:47:38;;;;;;;10.25;2.80;;;;;;;2.52;54.15;92075.91;6187739;23;20017;-77
2023/03/05 02:50:07;;;;;;;7.43;2.92;;;;;;;2.48;54.86;92070.47;6188079;23;20324;-77
2023/03/05 02:52:33;;;;;;;7.18;3.10;;;;;;;2.43;55.29;92072.97;6187695;23;20017;-77
2023/03/05 02:54:59;;;;;;;5.93;3.08;;;;;;;2.40;55.43;92074.25;6187607;23;20000;-77
2023/03/05 02:57:27;;;;;;;7.47;3.58;;;;;;;2.39;58.26;92062.38;6163082;23;20017;-76
2023/03/05 02:59:53;;;;;;;8.98;3.90;;;;;;;2.36;58.85;92062.84;6187732;23;20024;-77
2023/03/05 03:02:19;;;;;;;7.32;3.97;;;;;;;2.28;60.12;92064.09;6187398;23;20021;-76
2023/03/05 03:04:45;;;;;;;9.40;4.35;;;;;;;2.25;60.37;92062.00;6187757;23;20511;-77
2023/03/05 03:07:12;;;;;;;11.40;4.18;;;;;;;2.24;61.84;92057.84;6214079;23;20016;-77
2023/03/05 03:09:38;;;;;;;11.25;5.00;;;;;;;2.19;63.67;92055.22;6186818;23;20036;-78
2023/03/05 03:12:05;;;;;;;10.18;4.88;;;;;;;2.20;63.33;92056.00;6214238;23;20016;-77
2023/03/05 03:14:38;;;;;;;8.63;4.38;;;;;;;2.17;64.24;92061.66;6214227;23;20043;-77
2023/03/05 03:17:15;;;;;;;9.60;4.25;;;;;;;2.13;64.41;92063.19;6187555;23;20019;-77
2023/03/05 03:19:42;;;;;;;10.95;4.38;;;;;;;2.13;64.07;92056.19;6187254;23;20066;-77
2023/03/05 03:22:10;;;;;;;9.80;4.40;;;;;;;2.12;64.11;92062.41;6213804;23;20000;-77
2023/03/05 03:24:39;;;;;;;8.10;4.22;;;;;;;2.12;63.69;92061.59;6214161;23;20016;-77
2023/03/05 03:27:06;;;;;;;7.40;3.55;;;;;;;2.13;63.51;92052.84;6187831;23;20349;-77
2023/03/05 03:29:31;;;;;;;8.20;3.67;;;;;;;2.11;62.04;92044.56;6187213;23;20087;-77
2023/03/05 03:31:57;;;;;;;9.57;3.05;;;;;;;2.08;60.15;92046.59;6187632;23;20040;-76
2023/03/05 03:34:23;;;;;;;7.70;3.03;;;;;;;2.08;58.73;92056.16;6214240;23;20044;-77
2023/03/05 03:36:51;;;;;;;8.18;3.22;;;;;;;2.06;58.00;92045.28;6187177;23;20008;-76
2023/03/05 03:39:18;;;;;;;7.43;2.90;;;;;;;2.05;57.74;92057.44;6214175;23;20023;-76
2023/03/05 03:41:48;;;;;;;6.03;3.03;;;;;;;2.07;57.36;92049.44;6214086;23;20016;-76
2023/03/05 03:44:16;;;;;;;7.43;3.00;;;;;;;2.05;56.67;92052.28;6187055;23;20548;-78
2023/03/05 03:46:43;;;;;;;5.95;2.67;;;;;;;2.02;56.34;92037.25;6212574;23;20020;-76
2023/03/05 03:49:15;;;;;;;13.68;4.13;;;;;;;2.08;57.31;92038.09;6214129;23;20440;-77
2023/03/05 03:51:40;;;;;;;5.45;2.80;;;;;;;2.06;56.02;92042.72;6187442;23;20012;-77
2023/03/05 03:54:06;;;;;;;6.15;3.10;;;;;;;2.04;55.66;92047.34;6161932;23;20376;-77
2023/03/05 03:56:32;;;;;;;6.78;3.00;;;;;;;1.98;56.13;92030.25;6213777;23;20024;-77
2023/03/05 03:58:57;;;;;;;6.65;3.00;;;;;;;1.96;55.90;92037.44;6162026;23;20025;-77
2023/03/05 04:01:23;;;;;;;7.90;3.33;;;;;;;1.91;56.14;92024.50;6213898;23;20341;-77
2023/03/05 04:03:48;;;;;;;8.55;3.40;;;;;;;1.87;56.89;92032.75;6201163;23;20016;-77
2023/03/05 04:06:14;;;;;;;7.45;3.10;;;;;;;1.84;57.25;92035.00;6214004;23;20019;-77
2023/03/05 04:08:40;;;;;;;7.75;3.60;;;;;;;1.81;57.43;92030.34;6213667;23;20433;-77
2023/03/05 04:11:05;;;;;;;8.43;3.53;;;;;;;1.80;57.50;92029.56;6211322;23;20013;-77
2023/03/05 04:13:31;;;;;;;7.65;3.28;;;;;;;1.77;57.42;92024.88;6186210;23;20066;-77
2023/03/05 04:15:57;;;;;;;10.68;3.92;;;;;;;1.79;58.00;92033.16;6212227;23;20100;-77
2023/03/05 04:18:23;;;;;;;6.45;3.28;;;;;;;1.77;58.82;92032.63;6212297;23;20024;-77
2023/03/05 04:20:48;;;;;;;7.93;3.35;;;;;;;1.80;58.74;92028.78;6213657;23;20057;-77
2023/03/05 04:23:14;;;;;;;7.38;3.65;;;;;;;1.78;59.03;92021.28;6211988;23;20040;-77
2023/03/05 04:25:40;;;;;;;6.65;3.35;;;;;;;1.76;59.30;92027.72;6213108;23;20095;-76
2023/03/05 04:28:06;;;;;;;7.85;3.33;;;;;;;1.71;59.47;92030.22;6213480;23;20031;-77
2023/03/05 04:30:31;;;;;;;6.90;3.20;;;;;;;1.71;59.13;92030.22;6213470;23;20067;-77
2023/03/05 04:32:57;;;;;;;5.22;2.92;;;;;;;1.70;58.90;92026.88;6211941;23;20025;-77
2023/03/05 04:35:23;;;;;;;6.95;3.75;;;;;;;1.67;59.32;92024.81;6213572;23;20003;-77
2023/03/05 04:37:49;;;;;;;5.72;3.00;;;;;;;1.65;59.35;92022.44;6212890;23;20024;-77
2023/03/05 04:40:15;;;;;;;9.13;3.75;;;;;;;1.59;59.64;92020.84;6212020;23;20357;-77
2023/03/05 04:42:41;;;;;;;6.78;3.28;;;;;;;1.54;59.51;92020.78;6187048;23;20016;-76
2023/03/05 04:45:07;;;;;;;7.18;3.67;;;;;;;1.50;59.69;92016.34;6187310;23;20012;-76
2023/03/05 04:47:33;;;;;;;8.10;4.03;;;;;;;1.53;60.92;92015.84;6213862;23;20013;-77
2023/03/05 04:49:59;;;;;;;7.53;3.88;;;;;;;1.54;61.83;92022.59;6212779;23;20016;-76
2023/03/05 04:52:25;;;;;;;6.97;3.67;;;;;;;1.57;62.50;92029.84;6213052;23;20017;-77
2023/03/05 04:54:51;;;;;;;7.90;3.95;;;;;;;1.51;63.01;92025.63;6213193;23;20005;-77
2023/03/05 04:57:17;;;;;;;7.35;3.50;;;;;;;1.47;62.34;92019.44;6212682;23;20058;-77
2023/03/05 04:59:42;;;;;;;6.25;3.15;;;;;;;1.43;61.76;92016.53;6213447;23;20127;-77
2023/03/05 05:02:08;;;;;;;10.48;3.47;;;;;;;1.39;61.70;92018.81;6211778;23;20031;-77
2023/03/05 05:04:34;;;;;;;6.85;3.30;;;;;;;1.39;61.32;92016.22;6211434;23;20453;-76
2023/03/05 05:07:01;;;;;;;6.20;3.22;;;;;;;1.42;62.39;92018.34;6211654;23;20067;-77
2023/03/05 05:09:26;;;;;;;7.10;3.60;;;;;;;1.40;62.64;92022.97;6211348;23;20020;-77
2023/03/05 05:11:53;;;;;;;8.77;3.63;;;;;;;1.37;62.56;92023.44;6212538;23;20024;-77
2023/03/05 05:14:19;;;;;;;6.80;3.38;;;;;;;1.30;62.38;92022.84;6186568;23;20027;-77
2023/03/05 05:16:44;;;;;;;8.55;3.33;;;;;;;1.29;62.29;92028.25;6211648;23;20087;-76
2023/03/05 05:19:10;;;;;;;7.43;3.25;;;;;;;1.28;62.23;92027.44;6213254;23;20070;-77
2023/03/05 05:21:36;;;;;;;8.13;3.10;;;;;;;1.25;61.77;92023.56;6211786;23;20004;-77
2023/03/05 05:24:02;;;;;;;7.57;3.25;;;;;;;1.24;62.03;92023.81;6211710;23;20328;-77
2023/03/05 05:26:28;;;;;;;8.93;3.38;;;;;;;1.22;62.04;92018.13;6212829;23;20104;-77
2023/03/05 05:28:53;;;;;;;8.40;3.50;;;;;;;1.22;61.84;92012.97;6211789;23;20030;-77
2023/03/05 05:31:19;;;;;;;9.27;3.10;;;;;;;1.21;61.47;92011.38;6214778;23;20008;-77
2023/03/05 05:33:45;;;;;;;5.32;3.08;;;;;;;1.18;61.31;92012.66;6214608;23;20020;-77
2023/03/05 05:36:14;;;;;;;8.57;3.08;;;;;;;1.19;61.17;92013.41;6216742;23;20452;-76
2023/03/05 05:38:40;;;;;;;7.15;3.63;;;;;;;1.18;61.75;92017.81;6214870;23;20015;-76
2023/03/05 05:41:12;;;;;;;7.55;3.42;;;;;;;1.18;61.98;92004.13;6215666;23;20361;-77
2023/03/05 05:43:38;;;;;;;7.78;3.60;;;;;;;1.18;62.27;92011.88;6216545;23;20035;-77
2023/03/05 05:46:07;;;;;;;7.68;3.33;;;;;;;1.15;62.16;92007.97;6214767;23;20086;-77
2023/03/05 05:48:34;;;;;;;7.93;3.38;;;;;;;1.15;61.95;92009.75;6215006;23;20464;-76
2023/03/05 05:51:08;;;;;;;8.35;3.35;;;;;;;1.16;62.16;92012.09;6216215;23;20022;-76
2023/03/05 05:53:33;;;;;;;8.30;3.08;;;;;;;1.17;61.82;92008.53;6216460;23;20016;-76
2023/03/05 05:55:59;;;;;;;6.63;3.10;;;;;;;1.17;61.12;92005.13;6189471;23;20424;-77
2023/03/05 05:58:25;;;;;;;7.05;3.00;;;;;;;1.17;60.32;92005.13;6215154;23;20021;-77
2023/03/05 06:00:50;;;;;;;4.95;2.50;;;;;;;1.13;59.84;92004.09;6189332;23;20390;-77
2023/03/05 06:03:16;;;;;;;6.80;2.47;;;;;;;1.13;59.06;92009.25;6177588;23;20021;-77
2023/03/05 06:05:42;;;;;;;4.40;2.63;;;;;;;1.13;59.01;92010.00;6160041;23;20461;-77
2023/03/05 06:08:08;;;;;;;11.98;2.90;;;;;;;1.15;59.39;92007.19;6183373;23;20067;-77
2023/03/05 06:10:35;;;;;;;6.93;3.40;;;;;;;1.20;60.20;92012.41;6185739;23;20001;-77
2023/03/05 06:13:00;;;;;;;8.73;3.10;;;;;;;1.39;60.49;92005.91;6184031;23;20012;-77
2023/03/05 06:15:26;;;;;;;8.43;3.65;;;;;;;2.01;59.99;92003.94;6185987;23;20020;-77
2023/03/05 06:17:53;;;;;;;8.20;3.40;;;;;;;2.95;60.30;92004.31;6158916;23;20437;-77
2023/03/05 06:20:19;;;;;;;9.95;3.47;;;;;;;4.02;57.45;92001.31;6160026;23;20017;-76
2023/03/05 06:22:45;;;;;;;6.22;3.10;;;;;;;5.01;55.46;91999.19;6184503;23;20075;-77
2023/03/05 06:25:11;;;;;;;5.90;3.30;;;;;;;5.93;52.68;92005.84;6186333;23;20012;-77
2023/03/05 06:27:37;;;;;;;6.95;3.45;;;;;;;6.61;47.99;91997.31;6185783;23;20008;-77
2023/03/05 06:30:05;;;;;;;7.60;3.25;;;;;;;7.40;46.03;91994.47;6185794;23;20004;-77
2023/03/05 06:32:31;;;;;;;6.18;3.20;;;;;;;8.18;44.21;91992.44;6186033;23;20031;-77
2023/03/05 06:34:56;;;;;;;6.60;3.17;;;;;;;8.90;42.79;91986.91;6159881;23;20005;-77
2023/03/05 06:37:22;;;;;;;8.80;3.30;;;;;;;9.65;41.66;91993.63;6157994;23;20017;-78
2023/03/05 06:39:48;;;;;;;7.60;3.13;;;;;;;10.29;40.15;91995.47;6188625;23;20028;-76
2023/03/05 06:42:16;;;;;;;7.28;3.63;;;;;;;10.83;38.86;91991.09;6157269;23;20031;-77
2023/03/05 06:44:42;;;;;;;7.43;3.70;;;;;;;11.46;37.35;91997.09;6156055;23;20036;-76
2023/03/05 06:47:09;;;;;;;6.80;3.60;;;;;;;12.02;35.52;91984.31;6175112;23;20045;-77
2023/03/05 06:49:36;;;;;;;6.53;3.40;;;;;;;12.34;35.92;91987.56;6180451;23;19997;-77
2023/03/05 06:52:02;;;;;;;11.52;3.60;;;;;;;12.78;35.04;91977.84;6157111;23;20025;-78
2023/03/05 06:54:28;;;;;;;6.50;3.63;;;;;;;13.42;34.37;91977.06;6159549;23;20017;-80
2023/03/05 06:56:53;;;;;;;7.00;4.00;;;;;;;14.05;32.57;91990.38;6183549;23;20062;-79
2023/03/05 06:59:20;;;;;;;9.30;3.85;;;;;;;14.41;32.27;91991.69;6181937;23;20084;-78
2023/03/05 07:01:46;;;;;;;7.93;3.60;;;;;;;14.88;31.48;91988.84;6155177;23;20047;-77
2023/03/05 07:04:13;;;;;;;6.53;3.70;;;;;;;15.50;30.58;91987.91;6175661;23;20017;-78
2023/03/05 07:06:41;;;;;;;8.00;3.83;;;;;;;15.49;30.69;91994.28;6216430;23;20008;-78
2023/03/05 07:09:09;;;;;;;7.88;3.20;;;;;;;16.31;27.36;91977.56;6217514;23;20070;-78
2023/03/05 07:11:34;;;;;;;5.85;2.70;;;;;;;16.16;27.10;91986.19;6215730;23;20018;-79
2023/03/05 07:14:00;;;;;;;5.50;2.58;;;;;;;15.82;26.94;91978.38;6215141;23;20337;-78
2023/03/05 07:16:29;;;;;;;4.47;2.40;;;;;;;16.41;26.39;91982.41;6214046;23;20441;-78
2023/03/05 07:18:56;;;;;;;7.25;2.80;;;;;;;17.34;25.09;91980.72;6216741;23;20016;-77
2023/03/05 07:21:24;;;;;;;5.47;2.95;;;;;;;17.52;25.85;91979.31;6214658;23;20040;-78
2023/03/05 07:23:53;;;;;;;7.57;3.15;;;;;;;17.88;25.74;91977.53;6215374;23;20000;-78
2023/03/05 07:26:19;;;;;;;5.78;3.20;;;;;;;18.22;24.71;91977.91;6214026;23;20008;-80
2023/03/05 07:28:44;;;;;;;8.52;4.80;;;;;;;19.62;24.24;91981.38;6212363;23;20015;-79
2023/03/05 07:31:13;;;;;;;10.43;5.97;;;;;;;19.70;26.37;91985.72;6212532;23;20001;-79
2023/03/05 07:33:39;;;;;;;10.18;5.63;;;;;;;19.09;26.25;91991.78;6210889;22;20069;-78
2023/03/05 07:36:09;;;;;;;10.13;6.15;;;;;;;18.78;26.54;91992.69;6212833;23;20013;-79
2023/03/05 07:38:35;;;;;;;9.63;6.03;;;;;;;18.79;26.41;91984.41;6210278;23;20004;-81
2023/03/05 07:41:05;;;;;;;10.95;5.90;;;;;;;17.36;27.71;91989.09;6212142;23;20036;-79
2023/03/05 07:43:31;;;;;;;9.75;5.28;;;;;;;16.56;29.48;91994.13;6210596;23;20017;-80
2023/03/05 07:45:57;;;;;;;10.07;5.55;;;;;;;16.16;30.13;91988.81;6187680;23;20436;-79
2023/03/05 07:48:23;;;;;;;10.48;5.43;;;;;;;15.70;30.96;91996.06;6213420;23;20485;-79
2023/03/05 07:50:49;;;;;;;8.02;5.45;;;;;;;15.64;30.56;91992.09;6201879;23;20009;-79
2023/03/05 07:53:15;;;;;;;10.27;5.90;;;;;;;14.62;31.96;91995.13;6208696;23;20020;-80
2023/03/05 07:55:45;;;;;;;10.07;5.40;;;;;;;14.55;31.34;91986.97;6209026;23;20071;-79
2023/03/05 07:58:13;;;;;;;9.18;5.13;;;;;;;14.35;31.89;91988.50;6212693;23;20358;-79
2023/03/05 08:00:39;;;;;;;8.73;5.22;;;;;;;13.83;32.29;91979.06;6209838;23;20059;-80
2023/03/05 08:03:05;;;;;;;9.50;5.50;;;;;;;13.90;31.71;91987.22;6180543;23;20111;-78
2023/03/05 08:05:31;;;;;;;13.68;5.53;;;;;;;13.50;32.34;91977.03;6206778;23;20016;-79
2023/03/05 08:07:57;;;;;;;8.20;4.03;;;;;;;13.39;30.73;91981.09;6183636;23;20021;-79
2023/03/05 08:10:24;;;;;;;11.63;5.80;;;;;;;13.39;33.60;91983.72;6210187;23;20007;-79
2023/03/05 08:12:49;;;;;;;10.45;5.80;;;;;;;12.93;33.44;91985.22;6209272;23;20023;-79
2023/03/05 08:15:15;;;;;;;11.10;6.00;;;;;;;12.69;34.61;91975.97;6210396;23;20004;-82
2023/03/05 08:17:41;;;;;;;9.50;5.72;;;;;;;11.94;36.51;91985.09;6211073;23;20143;-79
2023/03/05 08:20:09;;;;;;;9.55;5.03;;;;;;;11.61;35.51;91983.56;6209333;23;20012;-79
2023/03/05 08:22:36;;;;;;;10.65;4.45;;;;;;;11.71;34.64;91979.91;6206989;23;20020;-78
2023/03/05 08:25:04;;;;;;;11.52;5.15;;;;;;;11.62;36.02;91982.50;6183448;23;20342;-78
2023/03/05 08:27:31;;;;;;;6.45;3.95;;;;;;;11.92;33.51;91979.38;6210078;23;20017;-78
2023/03/05 08:29:57;;;;;;;8.63;5.00;;;;;;;12.32;34.55;91974.00;6186889;23;20004;-78
2023/03/05 08:32:22;;;;;;;7.20;3.70;;;;;;;11.90;32.10;91971.78;6210960;23;20020;-78
2023/03/05 08:34:49;;;;;;;6.88;3.10;;;;;;;12.14;31.32;91967.97;6210949;23;20363;-80
2023/03/05 08:37:15;;;;;;;9.57;3.75;;;;;;;12.55;30.11;91970.13;6210495;23;20008;-78
2023/03/05 08:39:40;;;;;;;5.40;3.10;;;;;;;12.77;29.14;91963.16;6211186;23;20011;-80
2023/03/05 08:42:06;;;;;;;7.82;4.78;;;;;;;13.01;31.70;91963.41;6185257;23;20009;-77
2023/03/05 08:44:32;;;;;;;9.32;3.22;;;;;;;12.73;28.78;91964.88;6209744;23;20027;-80
2023/03/05 08:46:57;;;;;;;7.82;3.20;;;;;;;12.52;29.75;91972.59;6208699;23;20024;-76
2023/03/05 08:49:23;;;;;;;6.88;3.20;;;;;;;12.53;29.74;91968.91;6212176;23;20384;-81
2023/03/05 08:51:49;;;;;;;7.03;2.80;;;;;;;12.87;29.21;91965.47;6212517;23;20012;-78
2023/03/05 08:54:14;;;;;;;5.80;2.95;;;;;;;13.12;28.89;91961.97;6210732;23;20005;-79
2023/03/05 08:56:40;;;;;;;6.05;2.75;;;;;;;13.00;29.12;91959.25;6211226;23;20012;-79
2023/03/05 08:59:06;;;;;;;7.07;3.75;;;;;;;12.80;31.54;91960.69;6182303;23;20096;-77
2023/03/05 09:01:33;;;;;;;5.95;2.92;;;;;;;13.15;29.12;91967.69;6209190;23;20020;-80
2023/03/05 09:03:59;;;;;;;6.78;3.75;;;;;;;12.61;30.02;91962.84;6213057;23;20017;-77
2023/03/05 09:06:26;;;;;;;7.00;4.40;;;;;;;12.32;33.66;91958.28;6209360;23;20012;-76
2023/03/05 09:08:52;;;;;;;6.93;3.80;;;;;;;11.86;34.69;91960.34;6184185;23;20031;-78
2023/03/05 09:11:18;;;;;;;5.82;2.95;;;;;;;11.41;31.35;91963.16;6209286;23;20015;-80
2023/03/05 09:13:44;;;;;;;11.25;5.07;;;;;;;11.75;35.26;91962.47;6207110;23;20009;-78
2023/03/05 09:16:13;;;;;;;11.13;4.57;;;;;;;11.56;36.08;91961.97;6157913;23;20010;-79
2023/03/05 09:18:39;;;;;;;8.80;4.53;;;;;;;11.06;37.68;91957.78;6155498;23;20318;-77
2023/03/05 09:21:07;;;;;;;6.78;4.22;;;;;;;10.87;37.67;91963.22;6210720;23;20037;-78
2023/03/05 09:23:33;;;;;;;9.55;4.47;;;;;;;11.26;38.74;91953.88;6209690;23;20005;-78
2023/03/05 09:25:59;;;;;;;9.30;3.97;;;;;;;11.34;38.13;91950.50;6211683;23;20088;-78
2023/03/05 09:28:24;;;;;;;7.53;3.95;;;;;;;11.45;38.05;91948.38;6184246;23;20058;-78
2023/03/05 09:30:50;;;;;;;9.18;4.65;;;;;;;11.65;38.09;91949.66;6209811;23;20039;-78
2023/03/05 09:33:15;;;;;;;6.22;3.13;;;;;;;12.02;32.74;91958.06;6183578;23;20070;-77
2023/03/05 09:35:41;;;;;;;5.50;3.00;;;;;;;12.58;30.03;91948.50;6159364;23;20440;-77
2023/03/05 09:38:08;;;;;;;6.85;2.80;;;;;;;13.09;28.08;91954.75;6209320;23;20472;-77
2023/03/05 09:41:06;;;;;;;11.27;3.80;;;;;;;13.89;33.83;91946.22;6187326;23;20008;-79
2023/03/05 09:43:31;;;;;;;5.18;2.75;;;;;;;13.61;32.87;91945.13;6218184;23;20076;-78
2023/03/05 09:46:06;;;;;;;9.18;4.53;;;;;;;12.96;32.77;91947.06;6219800;23;20000;-79
2023/03/05 09:48:52;;;;;;;10.95;4.43;;;;;;;12.86;32.87;91935.03;6218430;23;20092;-79
2023/03/05 09:51:26;;;;;;;6.00;2.63;;;;;;;12.57;32.63;91938.31;6220599;23;20009;-79
2023/03/05 09:54:17;;;;;;;5.90;3.45;;;;;;;12.16;33.32;91948.22;6219431;23;20036;-79
2023/03/05 09:56:50;;;;;;;9.38;3.92;;;;;;;12.20;32.72;91938.63;6218959;23;20008;-79
2023/03/05 09:59:46;;;;;;;6.90;3.47;;;;;;;12.18;33.04;91937.41;6191973;23;20016;-79
2023/03/05 10:02:21;;;;;;;7.18;3.42;;;;;;;12.12;33.88;91931.56;6195992;23;20017;-79
2023/03/05 10:05:11;;;;;;;7.45;3.80;;;;;;;12.06;33.27;91930.91;6215185;23;20024;-79
2023/03/05 10:07:40;;;;;;;8.23;4.60;;;;;;;12.18;34.06;91935.56;6216816;23;20032;-79
2023/03/05 10:10:17;;;;;;;6.50;3.20;;;;;;;12.21;33.10;91926.31;6213449;23;20016;-79
2023/03/05 10:12:45;;;;;;;7.03;4.13;;;;;;;12.25;33.89;91924.63;6214370;23;20456;-78
2023/03/05 10:15:12;;;;;;;6.85;3.28;;;;;;;12.01;33.66;91922.44;6220088;23;20005;-78
2023/03/05 10:18:02;;;;;;;8.75;4.03;;;;;;;11.86;33.50;91921.75;6219514;23;20087;-79
2023/03/05 10:20:58;;;;;;;5.93;2.97;;;;;;;12.45;33.60;91926.59;6219652;23;20013;-79
2023/03/05 10:23:49;;;;;;;8.23;3.95;;;;;;;12.20;32.41;91925.50;6223099;23;20436;-79
2023/03/05 10:26:43;;;;;;;7.78;4.10;;;;;;;12.00;32.57;91919.06;6221571;23;20013;-80
2023/03/05 10:29:35;;;;;;;5.78;3.20;;;;;;;12.51;32.38;91916.69;6219849;23;20012;-79
2023/03/05 10:32:06;;;;;;;7.07;3.30;;;;;;;12.36;33.27;91909.31;6220786;23;20025;-79
2023/03/05 10:35:18;;;;;;;6.45;3.38;;;;;;;12.20;33.04;91907.16;6221523;23;20400;-79
2023/03/05 10:38:09;;;;;;;8.82;4.00;;;;;;;11.60;33.83;91915.72;6216854;23;20020;-79
2023/03/05 10:40:47;;;;;;;7.80;4.05;;;;;;;12.05;35.78;91905.00;6219814;23;20020;-79
2023/03/05 10:43:36;;;;;;;7.85;4.32;;;;;;;12.22;34.49;91902.38;6222849;23;20013;-79
2023/03/05 10:46:03;;;;;;;7.78;4.10;;;;;;;12.21;35.03;91903.47;6221848;23;20199;-78
2023/03/05 10:48:41;;;;;;;9.95;4.00;;;;;;;11.89;34.83;91912.56;6221517;23;20005;-79
2023/03/05 10:51:19;;;;;;;10.05;4.50;;;;;;;11.98;34.42;91907.31;6197419;23;20040;-78
2023/03/05 10:54:17;;;;;;;11.38;4.55;;;;;;;11.92;35.47;91898.81;6223981;23;20072;-79
2023/03/05 10:56:43;;;;;;;9.10;4.90;;;;;;;11.62;35.20;91897.84;6190137;23;20016;-80
2023/03/05 10:59:08;;;;;;;9.00;4.35;;;;;;;11.56;36.06;91891.97;6224586;23;20044;-79
2023/03/05 11:01:36;;;;;;;10.75;5.07;;;;;;;11.76;35.54;91910.81;6221767;23;20445;-79
2023/03/05 11:04:06;;;;;;;9.13;4.80;;;;;;;12.08;35.20;91907.00;6222112;23;20032;-79
2023/03/05 11:06:46;;;;;;;9.85;4.75;;;;;;;12.33;34.38;91894.19;6194306;23;20021;-79
2023/03/05 11:09:20;;;;;;;9.50;4.22;;;;;;;12.12;35.06;91892.19;6191679;23;20016;-80
2023/03/05 11:12:13;;;;;;;8.75;5.03;;;;;;;11.93;34.44;91889.88;6218491;23;20039;-79
2023/03/05 11:14:43;;;;;;;8.88;4.43;;;;;;;12.38;34.93;91881.66;6206005;23;20048;-80
2023/03/05 11:17:32;;;;;;;8.40;4.45;;;;;;;12.16;35.33;91868.72;6191495;23;20381;-80
2023/03/05 11:20:26;;;;;;;10.10;5.00;;;;;;;12.32;34.88;91866.41;6216946;23;20020;-79
2023/03/05 11:23:07;;;;;;;13.55;6.13;;;;;;;12.03;37.07;91868.59;6216910;23;20017;-78
2023/03/05 11:25:34;;;;;;;10.80;5.25;;;;;;;12.04;36.22;91859.63;6217581;23;20024;-79
2023/03/05 11:28:02;;;;;;;17.00;6.30;;;;;;;12.07;37.82;91866.13;6218368;23;20105;-79
2023/03/05 11:30:31;;;;;;;12.95;6.43;;;;;;;12.15;36.55;91854.84;6219529;23;20014;-79
2023/03/05 11:33:06;;;;;;;12.43;5.90;;;;;;;12.26;37.56;91858.69;6220148;23;19997;-80
2023/03/05 11:35:35;;;;;;;12.75;6.32;;;;;;;12.38;37.36;91850.16;6219277;23;20009;-79
2023/03/05 11:38:03;;;;;;;12.95;6.28;;;;;;;12.28;37.12;91843.41;6217155;23;20031;-80
2023/03/05 11:40:34;;;;;;;9.45;5.60;;;;;;;12.29;38.01;91837.09;6217859;23;20024;-80
2023/03/05 11:43:01;;;;;;;11.05;5.55;;;;;;;12.20;39.02;91836.31;6190429;23;20452;-79
2023/03/05 11:45:29;;;;;;;9.50;5.18;;;;;;;11.97;38.92;91824.47;6191839;23;20001;-80